Time;durP1;ratioP1;P1;durP2;ratioP2;P2;SDS_P1;SDS_P2;PMS_P1;PMS_P2;Temp;Humidity;BMP_temperature;BMP_pressure;BME280_temperature;BME280_humidity;BME280_pressure;Samples;Min_cycle;Max_cycle;Signal;HPM_P1;HPM_P2
2022/07/13 00:01:05;;;;;;;3.53;2.88;;;;;;;10.34;70.11;93924.25;5091068;28;20104;-40
2022/07/13 00:03:31;;;;;;;4.53;4.22;;;;;;;10.06;70.27;93931.63;5110252;28;20042;-40
2022/07/13 00:05:56;;;;;;;27.42;25.77;;;;;;;9.93;70.71;93921.38;5110076;28;20563;-41
2022/07/13 00:08:22;;;;;;;28.15;26.73;;;;;;;9.90;71.49;93922.41;5109855;28;20068;-40
2022/07/13 00:10:48;;;;;;;20.73;19.25;;;;;;;9.84;72.03;93924.56;5110318;28;20028;-40
2022/07/13 00:13:13;;;;;;;11.43;10.85;;;;;;;9.97;71.34;93913.50;5110175;28;20076;-40
2022/07/13 00:15:39;;;;;;;12.38;11.70;;;;;;;10.00;71.92;93923.47;5103957;28;20470;-40
2022/07/13 00:18:04;;;;;;;6.40;6.10;;;;;;;10.11;71.39;93917.75;5111869;28;20031;-41
2022/07/13 00:20:30;;;;;;;8.63;8.10;;;;;;;10.22;70.27;93923.00;5110581;28;20035;-40
2022/07/13 00:22:55;;;;;;;10.52;9.88;;;;;;;9.97;71.35;93923.78;5104542;28;20011;-40
2022/07/13 00:25:21;;;;;;;9.38;8.80;;;;;;;9.88;71.61;93919.44;5113810;28;20030;-39
2022/07/13 00:27:47;;;;;;;18.80;17.45;;;;;;;9.90;72.08;93920.41;5113305;28;20491;-39
2022/07/13 00:30:12;;;;;;;4.80;4.35;;;;;;;10.07;71.24;93917.28;5113747;28;20027;-39
2022/07/13 00:32:38;;;;;;;7.90;7.38;;;;;;;9.98;70.75;93919.75;5113726;28;20103;-39
2022/07/13 00:35:04;;;;;;;2.90;2.70;;;;;;;9.91;70.43;93921.16;5113468;27;20457;-39
2022/07/13 00:37:30;;;;;;;4.30;3.95;;;;;;;9.61;71.80;93916.00;5113530;27;20022;-39
2022/07/13 00:39:55;;;;;;;4.03;2.53;;;;;;;9.53;71.54;93928.91;5113572;28;20027;-39
2022/07/13 00:42:21;;;;;;;4.88;2.55;;;;;;;9.60;71.43;93919.25;5113474;27;20029;-39
2022/07/13 00:44:46;;;;;;;3.90;2.38;;;;;;;9.57;71.50;93921.06;5113419;28;20511;-39
2022/07/13 00:47:12;;;;;;;2.47;2.28;;;;;;;9.56;71.48;93924.38;5113152;28;20525;-39
2022/07/13 00:49:38;;;;;;;2.40;2.08;;;;;;;9.75;71.22;93917.47;5112859;28;20012;-39
2022/07/13 00:52:03;;;;;;;14.32;13.60;;;;;;;9.39;71.47;93919.19;5113067;28;20039;-39
2022/07/13 00:54:29;;;;;;;4.40;4.10;;;;;;;9.46;71.43;93912.28;5113302;28;20026;-39
2022/07/13 00:56:56;;;;;;;4.10;2.28;;;;;;;9.45;71.45;93910.78;5113227;28;20440;-39
2022/07/13 00:59:22;;;;;;;5.43;2.00;;;;;;;9.55;70.62;93914.63;5113159;28;20023;-39
2022/07/13 01:01:47;;;;;;;35.42;33.53;;;;;;;9.54;70.80;93919.38;5112612;28;20542;-39
2022/07/13 01:04:13;;;;;;;2.40;2.20;;;;;;;9.56;70.79;93916.84;5112851;28;20023;-39
2022/07/13 01:06:38;;;;;;;2.40;2.20;;;;;;;9.62;71.21;93922.22;5112695;28;20016;-39
2022/07/13 01:09:03;;;;;;;2.42;2.22;;;;;;;9.48;70.91;93915.25;5112933;28;20036;-38
2022/07/13 01:11:31;;;;;;;9.80;9.23;;;;;;;9.44;71.41;93907.28;5112582;28;20028;-42
2022/07/13 01:13:57;;;;;;;46.00;42.15;;;;;;;9.30;72.00;93903.06;5096068;28;20063;-40
2022/07/13 01:16:22;;;;;;;6.03;5.72;;;;;;;9.36;71.87;93909.19;5092141;28;20008;-40
2022/07/13 01:18:49;;;;;;;8.25;5.38;;;;;;;9.36;72.30;93908.44;5092041;28;20111;-40
2022/07/13 01:21:15;;;;;;;7.43;6.93;;;;;;;9.20;71.47;93898.50;5092403;28;20467;-40
2022/07/13 01:23:40;;;;;;;8.95;2.83;;;;;;;9.16;71.47;93902.31;5090748;28;20028;-40
2022/07/13 01:26:07;;;;;;;2.75;2.55;;;;;;;9.10;72.05;93907.19;5092296;28;20102;-40
2022/07/13 01:28:33;;;;;;;3.95;2.20;;;;;;;9.09;71.64;93894.69;5091033;28;20412;-40
2022/07/13 01:30:58;;;;;;;2.28;2.10;;;;;;;9.14;71.93;93895.84;5091855;28;20107;-40
2022/07/13 01:33:24;;;;;;;2.33;2.10;;;;;;;9.21;70.94;93899.97;5091790;28;20019;-41
2022/07/13 01:35:49;;;;;;;2.35;2.15;;;;;;;9.10;71.96;93887.91;5091971;28;20035;-41
2022/07/13 01:38:15;;;;;;;3.88;2.30;;;;;;;9.30;70.93;93897.53;5090561;28;20016;-41
2022/07/13 01:40:41;;;;;;;2.35;2.10;;;;;;;9.29;70.41;93881.56;5091981;28;20059;-40
2022/07/13 01:43:07;;;;;;;2.97;2.78;;;;;;;9.31;70.58;93901.81;5091727;28;20016;-41
2022/07/13 01:45:32;;;;;;;2.50;2.30;;;;;;;8.87;71.35;93892.31;5091533;28;20024;-39
2022/07/13 01:47:58;;;;;;;2.60;2.40;;;;;;;8.92;71.34;93899.00;5091359;28;20031;-40
2022/07/13 01:50:25;;;;;;;2.63;2.42;;;;;;;9.05;70.83;93891.47;5111726;28;20027;-40
2022/07/13 01:52:50;;;;;;;2.97;2.55;;;;;;;8.82;71.73;93893.16;5111787;28;20510;-40
2022/07/13 01:55:16;;;;;;;2.88;2.28;;;;;;;8.74;71.48;93894.28;5111865;27;20032;-40
2022/07/13 01:57:42;;;;;;;2.20;2.10;;;;;;;8.61;72.83;93894.25;5111642;28;20156;-40
2022/07/13 02:00:18;;;;;;;2.00;1.90;;;;;;;8.78;72.30;93892.72;5111983;28;20100;-40
2022/07/13 02:02:44;;;;;;;3.53;2.20;;;;;;;8.89;71.63;93900.03;5108753;28;20035;-40
2022/07/13 02:05:10;;;;;;;2.47;2.30;;;;;;;8.90;70.43;93902.25;5108643;28;20020;-40
2022/07/13 02:07:36;;;;;;;2.20;2.00;;;;;;;8.91;70.15;93901.00;5111459;28;20099;-40
2022/07/13 02:10:03;;;;;;;2.40;2.20;;;;;;;8.91;69.66;93895.50;5111828;28;20024;-40
2022/07/13 02:12:29;;;;;;;2.53;2.33;;;;;;;8.73;70.79;93904.56;5111647;28;20011;-41
2022/07/13 02:14:54;;;;;;;2.40;2.20;;;;;;;8.75;70.78;93899.28;5111716;28;20032;-41
2022/07/13 02:17:20;;;;;;;2.10;1.90;;;;;;;8.79;71.39;93888.69;5097546;28;20024;-41
2022/07/13 02:19:45;;;;;;;4.03;2.45;;;;;;;8.70;71.02;93911.13;5090133;28;20024;-41
2022/07/13 02:22:11;;;;;;;15.57;2.72;;;;;;;8.59;71.62;93900.31;5090880;28;20054;-40
2022/07/13 02:24:36;;;;;;;2.67;2.47;;;;;;;8.58;71.67;93900.81;5091221;28;20016;-41
2022/07/13 02:27:02;;;;;;;2.55;2.35;;;;;;;8.46;72.27;93908.50;5090816;28;20520;-41
2022/07/13 02:29:27;;;;;;;2.58;2.35;;;;;;;8.43;71.88;93898.53;5090825;28;20103;-41
2022/07/13 02:31:53;;;;;;;6.70;2.55;;;;;;;8.40;72.37;93905.09;5100266;28;20031;-39
2022/07/13 02:34:18;;;;;;;2.38;2.08;;;;;;;8.58;71.59;93907.06;5111136;28;20500;-38
2022/07/13 02:36:44;;;;;;;2.10;2.00;;;;;;;8.54;71.09;93903.88;5111317;28;20035;-39
2022/07/13 02:39:09;;;;;;;4.10;2.17;;;;;;;8.56;70.48;93904.09;5110622;28;20011;-38
2022/07/13 02:41:35;;;;;;;3.58;3.33;;;;;;;8.53;71.02;93899.66;5111012;28;20023;-39
2022/07/13 02:44:00;;;;;;;2.45;2.15;;;;;;;8.46;72.36;93894.75;5110957;28;20039;-39
2022/07/13 02:46:25;;;;;;;14.88;14.05;;;;;;;8.32;72.23;93895.97;5110981;28;20488;-39
2022/07/13 02:48:51;;;;;;;4.53;4.25;;;;;;;8.04;73.03;93899.09;5110705;28;20024;-39
2022/07/13 02:51:16;;;;;;;10.55;9.82;;;;;;;8.08;72.82;93899.53;5110517;28;20481;-39
2022/07/13 02:53:42;;;;;;;5.15;2.67;;;;;;;8.07;73.32;93903.56;5110643;28;20020;-39
2022/07/13 02:56:08;;;;;;;3.83;2.13;;;;;;;8.21;71.90;93905.09;5110800;28;20239;-39
2022/07/13 02:58:33;;;;;;;2.50;2.15;;;;;;;8.06;73.05;93906.81;5110722;28;20022;-39
2022/07/13 03:00:59;;;;;;;2.28;2.13;;;;;;;7.90;73.14;93891.31;5110647;28;20103;-39
2022/07/13 03:03:24;;;;;;;2.25;2.08;;;;;;;7.95;72.76;93913.22;5110929;28;20051;-39
2022/07/13 03:05:50;;;;;;;2.40;2.00;;;;;;;7.89;72.40;93915.28;5110837;28;20081;-39
2022/07/13 03:08:15;;;;;;;3.03;2.35;;;;;;;7.98;72.40;93911.44;5103957;28;20026;-39
2022/07/13 03:10:41;;;;;;;3.40;2.80;;;;;;;8.16;72.28;93910.69;5090205;28;20028;-39
2022/07/13 03:13:06;;;;;;;7.50;3.70;;;;;;;8.22;71.64;93914.09;5097630;28;20026;-39
2022/07/13 03:15:32;;;;;;;3.70;3.40;;;;;;;8.17;72.15;93915.66;5090333;28;20097;-39
2022/07/13 03:17:57;;;;;;;3.97;3.25;;;;;;;7.99;72.86;93910.91;5089904;28;20039;-39
2022/07/13 03:20:23;;;;;;;6.95;3.83;;;;;;;8.11;73.00;93908.75;5090152;28;20455;-40
2022/07/13 03:22:49;;;;;;;3.22;3.00;;;;;;;7.95;73.51;93907.72;5090141;28;20024;-39
2022/07/13 03:25:14;;;;;;;3.70;3.33;;;;;;;8.15;73.48;93915.44;5090346;28;20031;-39
2022/07/13 03:27:40;;;;;;;3.63;3.25;;;;;;;8.20;73.83;93911.13;5095523;28;20695;-39
2022/07/13 03:30:06;;;;;;;2.83;2.63;;;;;;;7.99;73.11;93910.19;5110407;28;20523;-39
2022/07/13 03:32:32;;;;;;;5.97;2.80;;;;;;;7.88;73.84;93921.31;5104597;28;20028;-40
2022/07/13 03:34:57;;;;;;;3.05;2.80;;;;;;;8.03;73.47;93903.13;5110423;28;20024;-40
2022/07/13 03:37:23;;;;;;;3.05;2.70;;;;;;;7.97;74.40;93918.94;5110294;28;20072;-40
2022/07/13 03:39:48;;;;;;;11.90;11.15;;;;;;;8.10;73.75;93918.28;5110517;28;20020;-40
2022/07/13 03:42:13;;;;;;;2.70;2.50;;;;;;;8.07;73.55;93908.31;5110196;28;20492;-40
2022/07/13 03:44:39;;;;;;;2.97;2.67;;;;;;;7.83;73.79;93881.66;5109341;28;20020;-40
2022/07/13 03:47:04;;;;;;;2.33;2.13;;;;;;;8.07;73.18;93906.31;5110247;28;20089;-40
2022/07/13 03:49:30;;;;;;;7.75;2.88;;;;;;;8.14;74.07;93911.19;5110407;28;20023;-40
2022/07/13 03:51:56;;;;;;;3.65;2.28;;;;;;;8.06;73.60;93891.06;5114148;28;20504;-40
2022/07/13 03:54:21;;;;;;;6.72;2.97;;;;;;;8.15;73.48;93915.44;5114122;28;20581;-41
2022/07/13 03:56:48;;;;;;;3.53;2.63;;;;;;;8.13;74.23;93909.72;5107289;28;20020;-40
2022/07/13 03:59:13;;;;;;;4.15;2.92;;;;;;;7.97;74.74;93893.47;5094022;28;20073;-40
2022/07/13 04:01:40;;;;;;;3.20;2.70;;;;;;;8.13;74.63;93906.97;5093797;28;20488;-40
2022/07/13 04:04:06;;;;;;;3.58;2.75;;;;;;;8.14;75.57;93911.19;5093919;28;20059;-40
2022/07/13 04:06:32;;;;;;;2.97;2.67;;;;;;;8.19;75.39;93912.38;5093531;28;20664;-41
2022/07/13 04:08:58;;;;;;;3.25;2.92;;;;;;;8.22;75.23;93903.84;5093410;28;20058;-41
2022/07/13 04:11:25;;;;;;;7.10;3.20;;;;;;;8.31;74.65;93886.22;5093642;28;20124;-40
2022/07/13 04:13:51;;;;;;;4.35;3.10;;;;;;;8.60;74.56;93910.03;5108922;28;20031;-40
2022/07/13 04:16:16;;;;;;;3.85;3.28;;;;;;;8.72;74.21;93903.09;5108952;27;20415;-39
2022/07/13 04:18:42;;;;;;;3.67;3.25;;;;;;;8.66;75.55;93896.94;5093205;28;20098;-40
2022/07/13 04:21:07;;;;;;;3.10;2.45;;;;;;;8.77;75.20;93907.75;5108346;28;20036;-41
2022/07/13 04:23:33;;;;;;;2.65;2.45;;;;;;;8.90;75.49;93898.78;5113390;28;20020;-40
2022/07/13 04:25:58;;;;;;;4.38;2.65;;;;;;;8.94;75.59;93910.94;5113607;28;20023;-40
2022/07/13 04:28:24;;;;;;;2.67;2.45;;;;;;;9.08;76.19;93914.47;5113463;28;20020;-41
2022/07/13 04:30:50;;;;;;;3.85;2.67;;;;;;;9.03;77.22;93916.06;5113690;28;20019;-41
2022/07/13 04:33:16;;;;;;;2.90;2.70;;;;;;;9.15;77.16;93900.84;5111327;28;20424;-41
2022/07/13 04:35:41;;;;;;;3.45;3.15;;;;;;;9.23;77.22;93916.72;5113152;28;20104;-40
2022/07/13 04:38:06;;;;;;;5.30;3.28;;;;;;;9.31;77.73;93910.06;5113568;28;20012;-40
2022/07/13 04:40:32;;;;;;;7.15;3.13;;;;;;;9.34;78.32;93916.50;5113543;28;20399;-41
2022/07/13 04:42:57;;;;;;;4.82;3.40;;;;;;;9.45;77.70;93914.28;5113165;28;20055;-41
2022/07/13 04:45:23;;;;;;;4.40;4.00;;;;;;;9.37;78.77;93915.47;5113278;28;20016;-41
2022/07/13 04:47:49;;;;;;;4.55;3.15;;;;;;;9.46;78.21;93909.53;5113156;28;20027;-40
2022/07/13 04:50:14;;;;;;;7.05;3.25;;;;;;;9.58;78.61;93919.06;5111930;28;20040;-41
2022/07/13 04:52:40;;;;;;;4.53;3.67;;;;;;;9.81;77.62;93915.31;5113345;28;20046;-41
2022/07/13 04:55:07;;;;;;;3.60;3.30;;;;;;;10.05;77.29;93919.13;5112906;28;20043;-40
2022/07/13 04:57:33;;;;;;;4.57;3.60;;;;;;;10.15;77.20;93912.66;5104034;28;20038;-41
2022/07/13 04:59:58;;;;;;;7.53;3.63;;;;;;;10.28;77.53;93911.88;5103561;28;20031;-41
2022/07/13 05:02:24;;;;;;;7.53;3.50;;;;;;;10.53;77.62;93916.53;5107174;28;20121;-41
2022/07/13 05:04:49;;;;;;;3.67;3.33;;;;;;;10.58;77.43;93912.16;5103119;28;20028;-41
2022/07/13 05:07:15;;;;;;;3.28;2.95;;;;;;;10.72;76.46;93915.63;5104713;28;20160;-41
2022/07/13 05:09:41;;;;;;;3.28;2.97;;;;;;;10.81;76.45;93915.13;5100874;28;20043;-40
2022/07/13 05:12:06;;;;;;;4.90;2.70;;;;;;;10.86;75.85;93912.25;5103305;28;20039;-41
2022/07/13 05:14:31;;;;;;;4.43;2.72;;;;;;;10.95;75.88;93914.53;5103759;28;20451;-41
2022/07/13 05:16:57;;;;;;;5.07;3.38;;;;;;;10.97;76.03;93911.22;5102299;28;20028;-40
2022/07/13 05:19:23;;;;;;;4.05;3.45;;;;;;;11.05;76.86;93914.78;5102238;28;20036;-41
2022/07/13 05:21:48;;;;;;;14.65;4.28;;;;;;;11.11;76.69;93920.94;5102357;28;20432;-40
2022/07/13 05:24:14;;;;;;;7.50;3.28;;;;;;;11.28;77.50;93919.19;5102799;28;20036;-40
2022/07/13 05:26:40;;;;;;;9.73;4.05;;;;;;;11.39;77.32;93907.84;5100965;28;20063;-40
2022/07/13 05:29:06;;;;;;;3.35;3.10;;;;;;;11.59;76.96;93905.56;5101844;28;20057;-40
2022/07/13 05:31:32;;;;;;;4.95;3.33;;;;;;;11.66;76.87;93910.41;5101019;28;20505;-41
2022/07/13 05:33:57;;;;;;;4.03;3.33;;;;;;;11.79;76.46;93913.84;5103211;28;20115;-41
2022/07/13 05:36:23;;;;;;;4.95;2.55;;;;;;;11.94;74.71;93911.16;5100858;28;20481;-42
2022/07/13 05:38:48;;;;;;;3.30;2.75;;;;;;;11.99;74.47;93918.56;5096268;28;20063;-42
2022/07/13 05:52:21;;;;;;;2.55;2.08;;;;;;;13.33;67.98;93904.81;5128446;27;20621;-40
2022/07/13 05:54:47;;;;;;;2.17;1.98;;;;;;;13.33;67.11;93917.94;5128456;27;20110;-40
2022/07/13 05:57:12;;;;;;;1.75;1.60;;;;;;;13.42;66.14;93912.56;5128585;27;20028;-40
2022/07/13 05:59:38;;;;;;;5.30;2.20;;;;;;;13.32;65.93;93894.28;5117268;27;20031;-40
2022/07/13 06:02:03;;;;;;;2.83;2.03;;;;;;;13.45;66.54;93905.16;5121755;28;20031;-39
2022/07/13 06:04:29;;;;;;;2.10;2.00;;;;;;;13.46;67.56;93907.38;5126201;27;20015;-40
2022/07/13 06:18:59;;;;;;;6.10;2.53;;;;;;;14.52;64.28;93867.44;5027450;28;21018;-40
2022/07/13 06:21:25;;;;;;;4.50;2.10;;;;;;;14.77;63.96;93902.28;5027425;28;20037;-40
2022/07/13 06:23:50;;;;;;;3.10;1.73;;;;;;;14.64;63.92;93894.22;5027334;28;20033;-41
2022/07/13 06:26:16;;;;;;;2.65;1.42;;;;;;;14.68;64.94;93902.19;5020517;28;20022;-40
2022/07/13 06:28:41;;;;;;;1.70;1.50;;;;;;;14.71;63.39;93896.22;5014664;28;20036;-40
2022/07/13 06:31:07;;;;;;;2.47;1.50;;;;;;;14.60;62.90;93899.44;5018749;28;20017;-40
2022/07/13 06:33:32;;;;;;;3.42;1.73;;;;;;;14.63;63.80;93895.53;5006584;28;20087;-40
2022/07/13 06:35:58;;;;;;;2.05;1.85;;;;;;;14.77;64.96;93887.69;5006861;28;20018;-40
2022/07/13 06:38:23;;;;;;;2.88;1.52;;;;;;;14.90;63.39;93890.91;5014822;28;20418;-40
2022/07/13 06:40:49;;;;;;;2.15;1.48;;;;;;;14.85;62.30;93860.56;5023592;28;20029;-39
2022/07/13 06:43:15;;;;;;;3.05;1.70;;;;;;;14.76;63.52;93861.91;5027107;28;20481;-40
2022/07/13 06:45:41;;;;;;;1.50;1.40;;;;;;;15.03;61.68;93882.28;5027288;28;20088;-40
2022/07/13 06:48:06;;;;;;;2.80;1.80;;;;;;;15.15;61.12;93877.75;5020649;28;20479;-40
2022/07/13 06:50:32;;;;;;;2.25;1.45;;;;;;;15.27;60.16;93885.63;5007838;28;20034;-41
2022/07/13 06:52:57;;;;;;;1.50;1.30;;;;;;;15.31;60.68;93881.13;5007180;28;20101;-40
2022/07/13 06:55:23;;;;;;;1.40;1.30;;;;;;;15.44;61.43;93885.69;5007443;28;20037;-40
2022/07/13 06:57:48;;;;;;;2.45;1.15;;;;;;;15.55;59.65;93876.88;5007113;28;20582;-40
2022/07/13 07:00:14;;;;;;;5.15;1.17;;;;;;;15.71;57.96;93875.41;5005504;28;20026;-40
2022/07/13 07:02:40;;;;;;;2.33;1.23;;;;;;;15.74;58.26;93877.78;5004635;28;20419;-40
2022/07/13 07:05:09;;;;;;;1.90;1.35;;;;;;;15.77;59.52;93878.69;5019512;28;20483;-40
2022/07/13 07:07:35;;;;;;;2.47;1.30;;;;;;;15.79;59.91;93867.72;5024168;28;20025;-40
2022/07/13 07:10:00;;;;;;;10.68;1.95;;;;;;;16.02;58.50;93870.25;5024887;28;20026;-40
2022/07/13 07:12:26;;;;;;;1.65;1.40;;;;;;;16.08;59.54;93871.47;5022155;28;20026;-41
2022/07/13 07:14:51;;;;;;;1.33;1.23;;;;;;;16.21;58.12;93868.34;5026279;28;20175;-41
2022/07/13 07:17:17;;;;;;;1.10;1.10;;;;;;;16.36;58.20;93878.56;5025935;28;20041;-41
2022/07/13 07:19:44;;;;;;;3.20;1.45;;;;;;;16.44;55.69;93863.22;4983127;28;20030;-40
2022/07/13 07:22:10;;;;;;;1.27;1.23;;;;;;;16.57;56.78;93867.72;5012918;28;20025;-41
2022/07/13 07:24:36;;;;;;;2.38;1.30;;;;;;;16.71;53.85;93862.50;5013176;28;20030;-40
2022/07/13 07:27:02;;;;;;;8.20;1.40;;;;;;;16.87;55.50;93877.72;5012992;28;20029;-40
2022/07/13 07:29:28;;;;;;;1.30;1.02;;;;;;;17.24;54.72;93876.38;5013186;28;20026;-40
2022/07/13 07:31:53;;;;;;;1.58;1.40;;;;;;;17.53;53.34;93877.25;5013001;28;20025;-40
2022/07/13 07:34:19;;;;;;;2.85;1.45;;;;;;;17.97;52.07;93877.78;5012957;28;20160;-41
2022/07/13 07:36:44;;;;;;;3.58;1.15;;;;;;;18.76;51.68;93887.00;5013166;28;20033;-40
2022/07/13 07:39:10;;;;;;;4.75;1.05;;;;;;;19.37;48.44;93880.03;5013190;28;20384;-41
2022/07/13 07:41:36;;;;;;;6.07;1.15;;;;;;;20.10;47.43;93885.63;5012820;28;20029;-41
2022/07/13 07:44:01;;;;;;;1.40;1.08;;;;;;;20.75;46.51;93888.50;5012796;28;20026;-41
2022/07/13 07:46:27;;;;;;;4.10;1.48;;;;;;;21.14;43.83;93881.16;5012921;28;20014;-41
2022/07/13 07:48:53;;;;;;;3.03;1.10;;;;;;;21.72;44.06;93869.22;5012717;28;20032;-40
2022/07/13 07:51:18;;;;;;;9.20;1.65;;;;;;;22.29;41.54;93884.53;5012766;28;20414;-41
2022/07/13 07:53:44;;;;;;;2.80;1.15;;;;;;;22.80;40.43;93872.00;5012595;28;20021;-38
2022/07/13 07:56:09;;;;;;;1.85;0.93;;;;;;;23.12;39.03;93882.22;5012619;28;20037;-40
2022/07/13 07:58:35;;;;;;;1.75;0.82;;;;;;;23.44;38.43;93883.25;5012764;28;20105;-40
2022/07/13 08:01:01;;;;;;;2.42;0.95;;;;;;;23.73;38.38;93886.22;5009288;28;20044;-40
2022/07/13 08:03:27;;;;;;;2.03;0.80;;;;;;;23.85;35.11;93880.44;5011352;28;20029;-41
2022/07/13 08:05:55;;;;;;;0.70;0.60;;;;;;;23.91;33.97;93875.84;5011373;28;20149;-41
2022/07/13 08:08:20;;;;;;;2.13;1.00;;;;;;;23.96;34.79;93871.91;5010938;28;20037;-41
2022/07/13 08:10:46;;;;;;;2.45;0.93;;;;;;;24.33;36.89;93885.78;5009486;28;20596;-40
2022/07/13 08:13:11;;;;;;;1.05;0.85;;;;;;;24.71;36.52;93876.34;5008330;28;20133;-44
2022/07/13 08:15:37;;;;;;;4.60;1.00;;;;;;;25.30;34.78;93885.53;5010844;28;20032;-40
2022/07/13 08:18:03;;;;;;;0.85;0.60;;;;;;;25.76;32.71;93880.56;5010470;28;20034;-40
2022/07/13 08:20:29;;;;;;;2.35;1.02;;;;;;;26.26;33.11;93877.88;5010804;28;20018;-41
2022/07/13 08:22:54;;;;;;;7.47;1.15;;;;;;;26.92;31.89;93879.91;5008023;28;20477;-42
2022/07/13 08:25:20;;;;;;;2.17;0.90;;;;;;;26.78;32.38;93890.69;5011005;28;20036;-42
2022/07/13 08:27:45;;;;;;;3.47;0.90;;;;;;;26.78;29.12;93881.44;5010622;28;20033;-40
2022/07/13 08:30:11;;;;;;;1.58;0.85;;;;;;;26.87;29.16;93883.97;5009840;28;20463;-43
2022/07/13 08:32:40;;;;;;;2.35;0.80;;;;;;;26.94;29.76;93887.78;5010264;28;20036;-43
2022/07/13 08:40:34;;;;;;;1.52;1.13;;;;;;;26.65;30.47;93879.47;5010054;28;20060;-41
2022/07/13 08:43:00;;;;;;;1.20;0.50;;;;;;;26.69;28.58;93888.88;4990315;28;20115;-41
2022/07/13 08:45:26;;;;;;;2.42;0.40;;;;;;;26.88;29.57;93879.00;5010548;28;20475;-41
2022/07/13 08:47:51;;;;;;;3.10;1.17;;;;;;;27.22;26.57;93879.66;5010837;28;20025;-40
2022/07/13 08:50:17;;;;;;;3.35;0.95;;;;;;;27.31;28.10;93890.66;5010454;28;20017;-41
2022/07/13 08:52:42;;;;;;;2.88;0.73;;;;;;;27.33;29.37;93892.84;4993100;28;20025;-42
2022/07/13 08:55:08;;;;;;;0.68;0.50;;;;;;;27.44;26.22;93894.72;5010853;28;20030;-39
2022/07/13 08:57:36;;;;;;;2.70;0.47;;;;;;;27.29;26.71;93895.53;5008683;28;20072;-40
2022/07/13 09:00:10;;;;;;;1.10;0.73;;;;;;;27.45;26.44;93905.41;5009570;28;20108;-40
2022/07/13 09:02:36;;;;;;;0.55;0.55;;;;;;;27.54;26.79;93895.84;5010358;28;20025;-40
2022/07/13 09:05:06;;;;;;;2.15;0.52;;;;;;;27.56;27.22;93892.34;5009449;28;20026;-40
2022/07/13 09:07:35;;;;;;;1.38;0.50;;;;;;;27.49;27.55;93882.88;5009719;28;20022;-40
2022/07/13 09:10:02;;;;;;;2.58;1.45;;;;;;;27.68;30.15;93887.84;5007706;28;20395;-42
2022/07/13 09:12:28;;;;;;;2.40;0.68;;;;;;;27.89;29.09;93886.50;5009768;28;20018;-41
2022/07/13 09:14:58;;;;;;;1.00;0.80;;;;;;;28.38;26.79;93886.88;5007531;28;20033;-41
2022/07/13 09:17:28;;;;;;;1.38;0.88;;;;;;;28.67;26.48;93888.59;5007030;28;20057;-41
2022/07/13 09:19:53;;;;;;;0.88;0.60;;;;;;;29.59;27.54;93881.56;5008252;28;20026;-43
2022/07/13 09:22:19;;;;;;;1.77;0.50;;;;;;;30.07;24.75;93885.84;5008250;28;20037;-41
2022/07/13 09:24:45;;;;;;;1.38;0.80;;;;;;;29.15;24.72;93889.44;5008636;28;20018;-40
2022/07/13 09:27:10;;;;;;;1.27;0.60;;;;;;;29.23;26.53;93873.41;5008194;28;20175;-43
2022/07/13 09:29:39;;;;;;;5.43;0.70;;;;;;;30.06;24.50;93880.84;4990335;28;20105;-41
2022/07/13 09:32:09;;;;;;;0.60;0.40;;;;;;;30.81;25.05;93878.63;5007027;28;20037;-44
2022/07/13 09:34:53;;;;;;;2.78;0.63;;;;;;;31.47;24.16;93879.53;5006989;28;20040;-42
2022/07/13 09:37:23;;;;;;;0.50;0.50;;;;;;;32.41;21.44;93874.38;5007836;28;20092;-41
2022/07/13 09:39:55;;;;;;;5.38;0.60;;;;;;;32.57;21.89;93886.16;5008473;28;20022;-42
2022/07/13 09:42:28;;;;;;;0.90;0.45;;;;;;;32.30;21.78;93884.16;5005583;28;20030;-42
2022/07/13 09:47:43;;;;;;;;;;;;;;;30.97;23.64;93887.59;5007406;28;20051;-40
2022/07/13 09:50:08;;;;;;;7.88;0.70;;;;;;;30.87;24.46;93890.19;5009356;28;20398;-41
2022/07/13 09:52:34;;;;;;;1.80;0.98;;;;;;;30.21;23.32;93894.09;5009096;28;20037;-43
2022/07/13 09:55:01;;;;;;;1.55;0.60;;;;;;;29.18;26.27;93885.28;4992259;28;20025;-41
2022/07/13 09:57:28;;;;;;;0.50;0.50;;;;;;;28.84;25.14;93884.16;4991324;28;20025;-40
2022/07/13 09:59:54;;;;;;;1.77;0.60;;;;;;;28.18;26.42;93882.56;4991576;28;20499;-40
2022/07/13 10:02:20;;;;;;;4.35;0.80;;;;;;;28.61;26.05;93885.53;4991348;28;20036;-41
2022/07/13 10:04:47;;;;;;;2.65;1.67;;;;;;;29.30;25.86;93888.53;4991536;28;20026;-41
2022/07/13 10:07:13;;;;;;;4.97;1.08;;;;;;;28.92;24.85;93876.63;5009141;28;20018;-42
2022/07/13 10:09:38;;;;;;;1.40;0.50;;;;;;;27.26;27.26;93891.88;5009226;28;21188;-40
2022/07/13 10:12:09;;;;;;;0.63;0.52;;;;;;;26.39;28.71;93895.34;5006271;28;20062;-42
2022/07/13 10:14:34;;;;;;;0.80;0.60;;;;;;;26.02;29.60;93884.56;5008924;28;20105;-39
2022/07/13 10:17:02;;;;;;;0.47;0.30;;;;;;;26.23;29.54;93881.25;5008599;28;20052;-43
2022/07/13 10:19:28;;;;;;;2.75;0.85;;;;;;;27.11;29.70;93872.13;5008973;28;20514;-41
2022/07/13 10:21:57;;;;;;;2.60;0.60;;;;;;;27.77;28.98;93863.34;4991427;28;20050;-40
2022/07/13 10:24:22;;;;;;;1.50;0.75;;;;;;;28.23;27.49;93864.31;5009005;28;20022;-39
2022/07/13 10:26:48;;;;;;;3.13;0.40;;;;;;;28.58;25.32;93849.94;5009298;28;20041;-39
2022/07/13 10:29:17;;;;;;;0.60;0.60;;;;;;;28.10;26.18;93863.16;5009696;28;20084;-39
2022/07/13 10:31:43;;;;;;;0.55;0.40;;;;;;;27.87;28.72;93860.88;5009814;28;20018;-42
2022/07/13 10:34:10;;;;;;;1.27;0.30;;;;;;;27.45;26.33;93868.53;5009828;28;20172;-39
2022/07/13 10:37:03;;;;;;;4.70;0.40;;;;;;;26.93;26.29;93863.63;4992430;28;20160;-39
2022/07/13 10:39:29;;;;;;;3.38;0.60;;;;;;;26.87;28.07;93866.97;4989056;28;20538;-42
2022/07/13 10:42:05;;;;;;;1.23;0.52;;;;;;;26.72;27.50;93864.19;5009564;28;20030;-39
2022/07/13 10:44:36;;;;;;;0.63;0.40;;;;;;;26.59;29.63;93854.47;5008898;28;20606;-39
2022/07/13 10:47:03;;;;;;;3.65;0.55;;;;;;;26.77;29.35;93854.47;5008039;28;20025;-40
2022/07/13 10:49:33;;;;;;;3.20;0.45;;;;;;;26.83;25.93;93849.78;5006229;28;20552;-40
2022/07/13 10:52:25;;;;;;;0.77;0.20;;;;;;;27.18;30.74;93849.03;5008986;28;20029;-39
2022/07/13 10:55:11;;;;;;;0.20;0.20;;;;;;;27.50;27.36;93844.63;5009941;28;20121;-40
2022/07/13 10:57:38;;;;;;;0.52;0.40;;;;;;;27.44;26.83;93847.22;5010083;28;20014;-40
2022/07/13 11:00:18;;;;;;;0.82;0.38;;;;;;;27.93;29.07;93844.06;5012137;28;20570;-39
2022/07/13 11:02:48;;;;;;;1.23;0.25;;;;;;;28.18;27.59;93839.97;5010660;28;20105;-40
2022/07/13 11:05:19;;;;;;;3.05;0.88;;;;;;;27.84;27.66;93835.91;5011868;28;20080;-39
2022/07/13 11:07:49;;;;;;;0.70;0.50;;;;;;;27.79;25.84;93835.03;5011898;28;20488;-39
2022/07/13 11:10:25;;;;;;;0.68;0.30;;;;;;;27.57;25.40;93837.78;5012840;28;20025;-39
2022/07/13 11:12:57;;;;;;;0.38;0.38;;;;;;;27.20;25.32;93829.25;5017207;28;20459;-39
2022/07/13 11:15:23;;;;;;;0.38;0.38;;;;;;;26.89;27.64;93824.56;5019323;28;20425;-40
2022/07/13 11:17:54;;;;;;;0.50;0.50;;;;;;;26.90;28.05;93831.66;5012331;28;20046;-39
2022/07/13 11:20:21;;;;;;;1.90;0.75;;;;;;;26.88;29.63;93840.06;5001442;28;20453;-40
2022/07/13 11:25:50;;;;;;;3.60;0.50;;;;;;;27.20;28.50;93842.72;5011751;28;20068;-38
2022/07/13 11:28:31;;;;;;;2.05;0.55;;;;;;;27.08;28.73;93839.41;4995429;28;20096;-38
2022/07/13 11:30:57;;;;;;;2.22;0.55;;;;;;;26.92;28.72;93840.25;4997882;28;20637;-38
2022/07/13 11:33:23;;;;;;;1.23;0.47;;;;;;;26.91;28.11;93844.47;4991257;28;20026;-38
2022/07/13 11:35:49;;;;;;;0.50;0.50;;;;;;;26.53;27.14;93847.81;4991164;28;20049;-39
2022/07/13 11:38:15;;;;;;;3.05;0.75;;;;;;;26.28;27.34;93832.66;4991143;28;20038;-40
2022/07/13 11:40:41;;;;;;;1.65;0.60;;;;;;;26.10;28.58;93840.38;4991118;28;20038;-38
2022/07/13 11:43:08;;;;;;;2.53;0.40;;;;;;;26.17;27.51;93844.94;4990747;28;20391;-41
2022/07/13 11:45:34;;;;;;;1.90;0.40;;;;;;;26.15;30.44;93836.34;4991243;28;20030;-38
2022/07/13 11:48:01;;;;;;;0.45;0.40;;;;;;;26.00;27.78;93833.53;4991275;28;20035;-41
2022/07/13 11:50:40;;;;;;;0.57;0.50;;;;;;;25.77;28.21;93828.28;4991131;28;20030;-40
2022/07/13 11:53:06;;;;;;;0.50;0.50;;;;;;;25.74;28.08;93821.06;4991062;28;20121;-40
2022/07/13 11:55:31;;;;;;;1.27;0.52;;;;;;;25.58;30.12;93837.34;4990733;28;20109;-40
2022/07/13 11:57:59;;;;;;;0.50;0.30;;;;;;;25.55;27.05;93828.75;4990885;28;20026;-40
2022/07/13 12:00:25;;;;;;;1.65;0.30;;;;;;;25.45;27.29;93822.66;4990543;28;20736;-40
2022/07/13 12:02:51;;;;;;;6.80;0.63;;;;;;;25.53;28.37;93822.31;4990845;28;20049;-41
2022/07/13 12:05:24;;;;;;;0.73;0.30;;;;;;;25.37;28.06;93819.44;4989498;28;20045;-40
2022/07/13 12:08:03;;;;;;;1.63;0.50;;;;;;;25.27;29.67;93832.41;5007162;28;20048;-40